Aérodrome :
LOGIN :

S'inscrire | Disclaimer

   EN    FR    IT 

 










Légende :    VFR   VFR Marginal   IFR   IFR Intensif   IFR Très Intensif
Visi : 
Plafond : 
>= 8 km
>= 3000ft
5 à 8 km
1000 à 3000 ft
1500m à 5 km
500 à 1000 ft
800 à 1500m
200 à 500 ft
< 800m
< 200 ft
Symboles :   Orages  Brouillard  Fortes neiges  Fortes précipitations  Vent > 20 kt
SIGMETs :   Divers  Orages  Givrage  Turbulence  Onde Orograph.  Cendres Volcan.






- Altitude de l'aérodrome : 511 ft
- Code IATA : LHA


EDTL - Lahr Schwarzwald

DERNIER METAR :
  • 030850Z 21008KT 180V240 CAVOK 24/12 Q1007

METARs EXPIRÉS :
  • 030820Z 21007KT 180V250 CAVOK 24/11 Q1007
  • 030750Z 20005KT 170V240 CAVOK 23/12 Q1007
  • 030720Z 17006KT CAVOK 22/12 Q1007
  • 030650Z 19006KT 160V220 CAVOK 20/12 Q1008
  • 030620Z 23004KT 180V270 CAVOK 19/11 Q1008

TAF TAF EDTL
Valide du 03 à 09h jusqu'au 03 à 18h UTC


030800Z 0309/0318 21007KT CAVOK
PROB40
TEMPO 0313/0315 25020G35KT TSRA BKN060CB



MET'MAP, la Météo Aéronautique d'un coup d'oeil ! - Copyright ORBIFLY Décembre 2007 - Disclaimer

ORBIFLY MET'MAP TEAM :

Programmation & Développement : Alexandra Zaïnal
Sur une idée originale de : Baudouin d'Aumeries
Assistance à la programmation : Marc-Olivier Méhu
Soutien technique & logistique : Manuel Goepfert

Contact : metmap@orbifly.com




SOURCES & CREDITS :

   NOAA